createdAt,value
2023-04-10T00:02:23.288Z,2.08
2023-04-10T00:04:52.348Z,2.15
2023-04-10T00:07:22.961Z,2.03
2023-04-10T00:09:52.286Z,2.00
2023-04-10T00:12:22.376Z,2.30
2023-04-10T00:14:51.331Z,2.00
2023-04-10T00:17:23.551Z,2.33
2023-04-10T00:19:53.575Z,2.15
2023-04-10T00:22:24.224Z,2.40
2023-04-10T00:24:55.019Z,2.10
2023-04-10T00:27:23.683Z,2.20
2023-04-10T00:29:51.776Z,1.85
2023-04-10T00:32:21.861Z,2.22
2023-04-10T00:34:51.071Z,2.15
2023-04-10T00:37:24.459Z,2.25
2023-04-10T00:39:55.085Z,2.08
2023-04-10T00:42:26.290Z,2.25
2023-04-10T00:44:55.817Z,2.35
2023-04-10T00:47:24.695Z,2.17
2023-04-10T00:49:55.205Z,2.22
2023-04-10T00:52:26.148Z,2.10
2023-04-10T00:54:55.531Z,2.30
2023-04-10T00:57:23.794Z,1.90
2023-04-10T00:59:53.692Z,2.17
2023-04-10T01:02:25.197Z,2.20
2023-04-10T01:04:55.662Z,2.00
2023-04-10T01:07:46.074Z,2.10
2023-04-10T01:10:56.139Z,2.00
2023-04-10T01:13:43.600Z,2.10
2023-04-10T01:16:27.746Z,2.00
2023-04-10T01:19:15.414Z,2.13
2023-04-10T01:21:44.498Z,1.98
2023-04-10T01:24:24.055Z,2.10
2023-04-10T01:27:11.799Z,2.10
2023-04-10T01:29:48.597Z,1.90
2023-04-10T01:32:22.338Z,2.28
2023-04-10T01:37:28.304Z,1.73
2023-04-10T01:40:03.805Z,2.30
2023-04-10T01:42:35.278Z,2.10
2023-04-10T01:45:10.896Z,2.05
2023-04-10T01:47:48.244Z,1.92
2023-04-10T01:50:23.427Z,1.90
2023-04-10T01:53:02.036Z,2.00
2023-04-10T01:55:41.824Z,2.17
2023-04-10T01:58:16.508Z,1.92
2023-04-10T02:00:50.779Z,2.20
2023-04-10T02:03:24.638Z,2.00
2023-04-10T02:06:24.090Z,2.25
2023-04-10T02:09:19.612Z,2.20
2023-04-10T02:12:06.038Z,2.00
2023-04-10T02:17:35.352Z,2.08
2023-04-10T02:20:11.050Z,1.98
2023-04-10T02:22:54.413Z,1.90
2023-04-10T02:25:28.353Z,2.03
2023-04-10T02:28:10.762Z,2.20
2023-04-10T02:30:44.100Z,2.10
2023-04-10T02:33:16.215Z,2.33
2023-04-10T02:35:50.283Z,2.00
2023-04-10T02:38:24.079Z,2.00
2023-04-10T02:40:59.384Z,2.00
2023-04-10T02:43:39.915Z,2.10
2023-04-10T02:46:12.585Z,2.00
2023-04-10T02:48:46.876Z,1.95
2023-04-10T02:51:16.319Z,2.00
2023-04-10T02:53:50.349Z,2.15
2023-04-10T02:59:09.542Z,1.70
2023-04-10T03:01:42.383Z,1.90
2023-04-10T03:04:11.893Z,2.10
2023-04-10T03:06:45.109Z,1.90
2023-04-10T03:09:15.449Z,2.05
2023-04-10T03:11:44.874Z,2.00
2023-04-10T03:14:16.435Z,1.80
2023-04-10T03:16:49.672Z,2.00
2023-04-10T03:19:23.211Z,2.00
2023-04-10T03:22:12.160Z,1.83
2023-04-10T03:24:46.703Z,1.92
2023-04-10T03:27:19.879Z,1.80
2023-04-10T03:29:50.313Z,2.10
2023-04-10T03:32:22.234Z,2.33
2023-04-10T03:34:52.114Z,2.08
2023-04-10T03:37:23.732Z,2.17
2023-04-10T03:39:53.136Z,2.20
2023-04-10T03:42:22.912Z,2.30
2023-04-10T03:44:52.564Z,2.10
2023-04-10T03:47:24.537Z,2.42
2023-04-10T03:49:56.461Z,2.05
2023-04-10T03:52:37.038Z,2.20
2023-04-10T03:55:16.012Z,2.13
2023-04-10T03:57:50.399Z,2.22
2023-04-10T04:00:23.454Z,2.30
2023-04-10T04:03:07.302Z,2.20
2023-04-10T04:06:04.748Z,2.05
2023-04-10T04:08:56.344Z,2.10
2023-04-10T04:14:35.022Z,1.80
2023-04-10T04:17:27.803Z,1.98
2023-04-10T04:20:11.694Z,2.22
2023-04-10T04:22:54.271Z,2.20
2023-04-10T04:25:46.529Z,2.08
2023-04-10T04:28:36.643Z,2.20
2023-04-10T04:31:35.857Z,2.05
2023-04-10T04:34:17.211Z,2.17
2023-04-10T04:37:12.247Z,2.00
2023-04-10T04:40:07.383Z,1.98
2023-04-10T04:43:26.238Z,1.75
2023-04-10T04:46:25.055Z,2.08
2023-04-10T04:49:14.878Z,2.03
2023-04-10T04:51:51.596Z,2.00
2023-04-10T04:54:52.743Z,1.90
2023-04-10T04:57:43.269Z,2.17
2023-04-10T05:00:38.792Z,2.00
2023-04-10T05:03:16.549Z,2.10
2023-04-10T05:06:23.851Z,2.00
2023-04-10T05:09:12.516Z,2.00
2023-04-10T05:12:08.267Z,1.85
2023-04-10T05:14:51.194Z,2.10
2023-04-10T05:17:42.850Z,2.10
2023-04-10T05:20:47.522Z,2.20
2023-04-10T05:23:41.279Z,2.15
2023-04-10T05:26:36.371Z,2.10
2023-04-10T05:29:26.229Z,1.98
2023-04-10T05:32:19.599Z,2.15
2023-04-10T05:35:10.412Z,2.10
2023-04-10T05:37:52.671Z,1.80
2023-04-10T05:40:54.761Z,1.90
2023-04-10T05:43:47.839Z,2.08
2023-04-10T05:46:40.868Z,2.10
2023-04-10T05:49:45.859Z,2.10
2023-04-10T05:52:35.758Z,1.92
2023-04-10T05:55:40.538Z,1.90
2023-04-10T05:58:37.517Z,1.90
2023-04-10T06:01:37.080Z,1.90
2023-04-10T06:04:10.213Z,1.95
2023-04-10T06:06:48.201Z,2.10
2023-04-10T06:09:22.738Z,2.10
2023-04-10T06:11:52.803Z,2.10
2023-04-10T06:14:34.082Z,2.13
2023-04-10T06:17:19.818Z,2.10
2023-04-10T06:19:52.524Z,1.80
2023-04-10T06:22:24.204Z,2.00
2023-04-10T06:24:54.795Z,1.92
2023-04-10T06:27:24.457Z,2.08
2023-04-10T06:29:56.259Z,2.00
2023-04-10T06:35:07.366Z,1.77
2023-04-10T06:37:37.534Z,1.73
2023-04-10T06:40:20.061Z,2.10
2023-04-10T06:42:50.590Z,2.10
2023-04-10T06:45:41.623Z,1.98
2023-04-10T06:48:12.818Z,2.00
2023-04-10T06:50:44.986Z,2.05
2023-04-10T06:53:16.430Z,1.90
2023-04-10T06:55:48.611Z,1.90
2023-04-10T06:58:22.459Z,2.00
2023-04-10T07:00:51.895Z,2.25
2023-04-10T07:03:22.735Z,1.85
2023-04-10T07:05:52.448Z,2.15
2023-04-10T07:08:22.781Z,1.98
2023-04-10T07:10:52.439Z,2.03
2023-04-10T07:13:22.520Z,1.88
2023-04-10T07:15:52.575Z,1.95
2023-04-10T07:18:23.889Z,2.03
2023-04-10T07:20:55.418Z,2.38
2023-04-10T07:23:26.109Z,2.00
2023-04-10T07:25:56.339Z,2.00
2023-04-10T07:28:31.062Z,2.10
2023-04-10T07:31:05.902Z,1.83
2023-04-10T07:33:52.572Z,1.98
2023-04-10T07:36:23.007Z,1.75
2023-04-10T07:38:53.148Z,2.05
2023-04-10T07:41:24.841Z,1.90
2023-04-10T07:43:56.470Z,2.00
2023-04-10T07:46:35.628Z,1.70
2023-04-10T07:49:08.542Z,1.90
2023-04-10T07:51:40.934Z,2.00
2023-04-10T07:54:15.596Z,1.92
2023-04-10T07:56:44.497Z,2.10
2023-04-10T07:59:15.713Z,1.80
2023-04-10T08:01:45.280Z,1.67
2023-04-10T08:04:18.932Z,2.00
2023-04-10T08:06:51.152Z,1.80
2023-04-10T08:09:27.074Z,1.83
2023-04-10T08:12:04.742Z,2.00
2023-04-10T08:14:39.408Z,1.98
2023-04-10T08:17:15.769Z,2.10
2023-04-10T08:19:46.461Z,1.80
2023-04-10T08:22:19.135Z,1.95
2023-04-10T08:24:49.867Z,2.08
2023-04-10T08:27:23.835Z,1.92
2023-04-10T08:29:54.426Z,1.90
2023-04-10T08:32:28.783Z,1.83
2023-04-10T08:35:04.744Z,1.80
2023-04-10T08:37:35.189Z,1.90
2023-04-10T08:40:07.275Z,2.00
2023-04-10T08:42:42.717Z,1.80
2023-04-10T08:45:12.694Z,2.10
2023-04-10T08:47:46.985Z,1.95
2023-04-10T08:50:20.771Z,2.00
2023-04-10T08:52:54.682Z,2.00
2023-04-10T08:55:24.248Z,2.00
2023-04-10T08:58:00.963Z,2.00
2023-04-10T09:00:41.338Z,2.00
2023-04-10T09:03:16.252Z,1.83
2023-04-10T09:05:46.716Z,1.83
2023-04-10T09:08:17.844Z,2.00
2023-04-10T09:10:48.089Z,1.90
2023-04-10T09:13:42.162Z,1.95
2023-04-10T09:16:15.670Z,1.95
2023-04-10T09:18:52.462Z,2.00
2023-04-10T09:21:24.559Z,1.98
2023-04-10T09:24:04.583Z,2.03
2023-04-10T09:26:37.307Z,2.10
2023-04-10T09:29:12.895Z,1.95
2023-04-10T09:31:44.900Z,2.10
2023-04-10T09:34:28.017Z,1.80
2023-04-10T09:37:05.287Z,2.10
2023-04-10T09:39:43.558Z,2.00
2023-04-10T09:42:15.098Z,1.80
2023-04-10T09:44:46.910Z,1.90
2023-04-10T09:47:22.785Z,1.90
2023-04-10T09:49:56.202Z,2.00
2023-04-10T09:52:35.743Z,1.85
2023-04-10T09:55:11.523Z,2.00
2023-04-10T09:57:47.511Z,2.08
2023-04-10T10:00:19.753Z,1.95
2023-04-10T10:02:52.572Z,2.20
2023-04-10T10:05:31.043Z,1.75
2023-04-10T10:08:03.892Z,2.10
2023-04-10T10:10:44.236Z,1.75
2023-04-10T10:13:36.311Z,1.73
2023-04-10T10:16:47.855Z,1.95
2023-04-10T10:19:43.015Z,1.60
2023-04-10T10:22:16.630Z,2.00
2023-04-10T10:24:50.481Z,1.80
2023-04-10T10:27:21.998Z,1.90
2023-04-10T10:29:56.403Z,2.10
2023-04-10T10:32:38.689Z,2.00
2023-04-10T10:35:12.761Z,2.10
2023-04-10T10:37:48.967Z,2.08
2023-04-10T10:40:44.665Z,1.98
2023-04-10T10:43:38.734Z,1.83
2023-04-10T10:46:19.629Z,1.92
2023-04-10T10:49:08.989Z,2.03
2023-04-10T10:51:50.063Z,1.80
2023-04-10T10:54:35.123Z,1.50
2023-04-10T10:57:10.962Z,2.10
2023-04-10T10:59:51.132Z,1.90
2023-04-10T11:02:22.492Z,1.90
2023-04-10T11:04:55.409Z,1.92
2023-04-10T11:08:05.784Z,2.10
2023-04-10T11:11:14.114Z,2.00
2023-04-10T11:14:04.979Z,2.10
2023-04-10T11:16:43.971Z,1.80
2023-04-10T11:19:16.961Z,1.73
2023-04-10T11:22:06.458Z,2.00
2023-04-10T11:25:04.070Z,1.88
2023-04-10T11:27:52.434Z,1.92
2023-04-10T11:30:34.443Z,1.95
2023-04-10T11:33:11.062Z,1.90
2023-04-10T11:35:44.000Z,1.80
2023-04-10T11:38:19.938Z,1.83
2023-04-10T11:41:04.699Z,1.85
2023-04-10T11:43:38.635Z,1.90
2023-04-10T11:46:10.396Z,2.00
2023-04-10T11:48:42.899Z,1.90
2023-04-10T11:51:16.647Z,2.05
2023-04-10T11:53:49.053Z,2.00
2023-04-10T11:56:24.566Z,1.95
2023-04-10T11:59:00.579Z,2.10
2023-04-10T12:01:33.105Z,2.40
2023-04-10T12:04:07.103Z,2.30
2023-04-10T12:06:38.288Z,2.25
2023-04-10T12:09:22.593Z,2.20
2023-04-10T12:11:52.525Z,2.47
2023-04-10T12:14:26.470Z,2.17
2023-04-10T12:16:57.101Z,2.20
2023-04-10T12:19:38.826Z,2.17
2023-04-10T12:22:14.715Z,2.42
2023-04-10T12:24:47.343Z,2.17
2023-04-10T12:27:31.420Z,2.10
2023-04-10T12:30:10.118Z,2.00
2023-04-10T12:32:43.025Z,1.92
2023-04-10T12:35:12.587Z,2.10
2023-04-10T12:37:51.868Z,2.10
2023-04-10T12:40:22.985Z,2.03
2023-04-10T12:42:53.114Z,2.10
2023-04-10T12:45:46.573Z,1.90
2023-04-10T12:48:27.233Z,1.90
2023-04-10T12:51:05.122Z,1.85
2023-04-10T12:53:48.185Z,1.65
2023-04-10T12:56:20.911Z,1.92
2023-04-10T12:59:09.016Z,1.80
2023-04-10T13:02:10.728Z,1.80
2023-04-10T13:04:42.715Z,1.52
2023-04-10T13:07:13.048Z,1.60
2023-04-10T13:11:16.194Z,1.88
2023-04-10T13:13:48.577Z,1.80
2023-04-10T13:16:20.011Z,1.42
2023-04-10T13:18:50.530Z,1.75
2023-04-10T13:21:23.737Z,1.98
2023-04-10T13:23:54.397Z,1.70
2023-04-10T13:26:25.818Z,1.55
2023-04-10T13:29:04.283Z,1.70
2023-04-10T13:37:22.933Z,1.60
2023-04-10T13:40:07.886Z,1.67
2023-04-10T13:42:40.563Z,1.73
2023-04-10T13:45:11.438Z,1.77
2023-04-10T13:47:40.533Z,1.80
2023-04-10T13:50:10.352Z,1.80
2023-04-10T13:52:39.929Z,1.80
2023-04-10T13:55:10.091Z,1.83
2023-04-10T13:57:39.857Z,2.03
2023-04-10T14:00:10.107Z,1.80
2023-04-10T14:02:44.229Z,2.03
2023-04-10T14:05:16.399Z,1.90
2023-04-10T14:07:52.459Z,2.00
2023-04-10T14:10:22.342Z,2.00
2023-04-10T14:12:51.810Z,1.80
2023-04-10T14:15:20.540Z,1.90
2023-04-10T14:17:50.521Z,1.98
2023-04-10T14:20:19.716Z,2.17
2023-04-10T14:22:48.438Z,1.80
2023-04-10T14:25:18.320Z,1.88
2023-04-10T14:27:47.726Z,2.00
2023-04-10T14:30:16.595Z,1.88
2023-04-10T14:32:46.308Z,1.67
2023-04-10T14:35:15.395Z,2.00
2023-04-10T14:37:44.876Z,1.75
2023-04-10T14:40:14.288Z,1.90
2023-04-10T14:42:42.861Z,2.00
2023-04-10T14:45:12.692Z,1.90
2023-04-10T14:47:42.886Z,1.88
2023-04-10T14:50:12.488Z,1.98
2023-04-10T14:52:42.029Z,1.92
2023-04-10T14:55:11.810Z,1.70
2023-04-10T14:57:40.604Z,1.70
2023-04-10T15:00:11.383Z,1.92
2023-04-10T15:02:41.925Z,2.03
2023-04-10T15:05:11.537Z,1.60
2023-04-10T15:08:36.429Z,2.15
2023-04-10T15:11:28.021Z,2.17
2023-04-10T15:14:36.234Z,1.90
2023-04-10T15:17:05.116Z,1.88
2023-04-10T15:19:35.305Z,1.83
2023-04-10T15:22:04.583Z,2.13
2023-04-10T15:24:46.929Z,2.00
2023-04-10T15:27:22.283Z,2.00
2023-04-10T15:29:51.477Z,2.00
2023-04-10T15:32:20.285Z,2.00
2023-04-10T15:34:49.270Z,2.03
2023-04-10T15:37:31.524Z,1.92
2023-04-10T15:40:12.581Z,2.08
2023-04-10T15:42:42.072Z,2.10
2023-04-10T15:45:11.009Z,2.08
2023-04-10T15:47:40.760Z,2.30
2023-04-10T15:50:11.696Z,2.20
2023-04-10T15:52:41.656Z,2.20
2023-04-10T15:55:10.433Z,1.80
2023-04-10T15:57:39.759Z,2.10
2023-04-10T16:00:09.024Z,2.30
2023-04-10T16:02:50.495Z,2.30
2023-04-10T16:05:24.728Z,2.10
2023-04-10T16:07:55.458Z,2.30
2023-04-10T16:10:24.946Z,2.30
2023-04-10T16:13:04.744Z,2.08
2023-04-10T16:15:39.443Z,2.15
2023-04-10T16:18:09.102Z,2.25
2023-04-10T16:20:39.381Z,2.40
2023-04-10T16:23:09.332Z,2.40
2023-04-10T16:25:38.147Z,2.22
2023-04-10T16:28:10.203Z,2.20
2023-04-10T16:30:40.989Z,2.30
2023-04-10T16:33:11.996Z,2.08
2023-04-10T16:35:42.599Z,2.40
2023-04-10T16:38:12.590Z,2.30
2023-04-10T16:40:42.561Z,2.30
2023-04-10T16:43:11.853Z,2.30
2023-04-10T16:45:42.442Z,2.20
2023-04-10T16:48:11.796Z,2.55
2023-04-10T16:50:42.794Z,2.30
2023-04-10T16:53:12.247Z,2.30
2023-04-10T16:55:42.938Z,2.45
2023-04-10T16:58:12.324Z,2.08
2023-04-10T17:00:42.243Z,2.30
2023-04-10T17:03:11.588Z,2.38
2023-04-10T17:05:44.161Z,2.30
2023-04-10T17:08:13.259Z,2.20
2023-04-10T17:10:43.697Z,2.20
2023-04-10T17:13:12.697Z,3.00
2023-04-10T17:15:42.909Z,2.50
2023-04-10T17:18:13.991Z,2.17
2023-04-10T17:20:44.245Z,2.40
2023-04-10T17:23:14.931Z,2.40
2023-04-10T17:25:44.867Z,2.60
2023-04-10T17:28:15.827Z,2.35
2023-04-10T17:30:46.487Z,2.42
2023-04-10T17:33:15.401Z,2.40
2023-04-10T17:35:45.191Z,2.40
2023-04-10T17:38:14.821Z,2.42
2023-04-10T17:40:46.407Z,2.28
2023-04-10T17:43:16.735Z,2.53
2023-04-10T17:45:47.225Z,2.30
2023-04-10T17:48:16.720Z,2.40
2023-04-10T17:50:47.570Z,2.40
2023-04-10T17:53:16.761Z,2.67
2023-04-10T17:55:48.735Z,2.47
2023-04-10T17:58:18.480Z,2.55
2023-04-10T18:00:50.664Z,2.50
2023-04-10T18:03:19.859Z,2.40
2023-04-10T18:05:49.151Z,2.30
2023-04-10T18:08:19.165Z,2.25
2023-04-10T18:10:49.690Z,2.45
2023-04-10T18:13:19.327Z,2.35
2023-04-10T18:15:48.660Z,2.40
2023-04-10T18:18:18.914Z,2.28
2023-04-10T18:20:48.253Z,2.40
2023-04-10T18:23:16.653Z,2.33
2023-04-10T18:25:55.426Z,2.40
2023-04-10T18:28:24.925Z,2.45
2023-04-10T18:30:57.181Z,2.60
2023-04-10T18:33:29.297Z,2.33
2023-04-10T18:36:01.205Z,2.63
2023-04-10T18:38:34.567Z,2.60
2023-04-10T18:41:04.104Z,2.50
2023-04-10T18:43:32.873Z,2.40
2023-04-10T18:46:03.635Z,2.20
2023-04-10T18:48:36.480Z,2.42
2023-04-10T18:51:07.775Z,2.38
2023-04-10T18:53:37.251Z,2.25
2023-04-10T18:56:07.978Z,2.42
2023-04-10T18:58:38.254Z,2.38
2023-04-10T19:01:08.339Z,2.40
2023-04-10T19:03:38.810Z,2.40
2023-04-10T19:06:10.377Z,2.20
2023-04-10T19:08:39.934Z,2.25
2023-04-10T19:11:10.536Z,2.33
2023-04-10T19:13:39.906Z,2.53
2023-04-10T19:16:12.884Z,2.30
2023-04-10T19:18:43.161Z,2.50
2023-04-10T19:21:12.534Z,2.60
2023-04-10T19:23:41.816Z,2.15
2023-04-10T19:26:16.443Z,2.30
2023-04-10T19:28:48.105Z,2.60
2023-04-10T19:31:16.498Z,2.47
2023-04-10T19:33:45.554Z,2.38
2023-04-10T19:36:16.930Z,2.47
2023-04-10T19:38:49.672Z,2.42
2023-04-10T19:41:20.812Z,2.30
2023-04-10T19:43:53.316Z,2.72
2023-04-10T19:46:24.035Z,2.05
2023-04-10T19:48:55.374Z,2.70
2023-04-10T19:51:24.828Z,2.50
2023-04-10T19:53:56.155Z,2.53
2023-04-10T19:56:28.565Z,2.30
2023-04-10T19:59:00.108Z,2.42
2023-04-10T20:01:29.777Z,2.47
2023-04-10T20:03:59.800Z,2.50
2023-04-10T20:06:30.395Z,2.50
2023-04-10T20:08:59.725Z,2.40
2023-04-10T20:11:32.668Z,2.40
2023-04-10T20:14:02.783Z,2.40
2023-04-10T20:16:33.464Z,2.40
2023-04-10T20:19:02.828Z,2.20
2023-04-10T20:21:33.702Z,2.33
2023-04-10T20:24:03.384Z,2.42
2023-04-10T20:26:32.494Z,2.35
2023-04-10T20:29:02.685Z,2.55
2023-04-10T20:31:34.641Z,2.60
2023-04-10T20:34:21.000Z,2.50
2023-04-10T20:37:14.542Z,2.53
2023-04-10T20:39:44.624Z,2.30
2023-04-10T20:42:14.746Z,2.80
2023-04-10T20:44:44.251Z,2.10
2023-04-10T20:47:15.538Z,2.10
2023-04-10T20:49:44.820Z,2.20
2023-04-10T20:52:16.482Z,2.17
2023-04-10T20:54:45.213Z,2.45
2023-04-10T20:57:15.548Z,2.50
2023-04-10T20:59:46.979Z,2.35
2023-04-10T21:02:18.551Z,2.08
2023-04-10T21:04:47.740Z,2.20
2023-04-10T21:07:18.259Z,2.42
2023-04-10T21:09:48.707Z,2.40
2023-04-10T21:12:18.316Z,2.30
2023-04-10T21:14:47.052Z,2.10
2023-04-10T21:17:20.391Z,2.15
2023-04-10T21:20:12.375Z,2.30
2023-04-10T21:23:04.570Z,2.10
2023-04-10T21:25:34.218Z,2.13
2023-04-10T21:28:03.697Z,2.28
2023-04-10T21:30:33.900Z,2.33
2023-04-10T21:33:04.980Z,2.30
2023-04-10T21:35:34.592Z,2.17
2023-04-10T21:38:03.619Z,2.28
2023-04-10T21:40:35.793Z,2.20
2023-04-10T21:43:06.079Z,2.28
2023-04-10T21:45:38.474Z,2.40
2023-04-10T21:48:08.706Z,2.38
2023-04-10T21:50:39.966Z,2.40
2023-04-10T21:53:10.443Z,2.40
2023-04-10T21:55:41.052Z,2.33
2023-04-10T21:58:11.792Z,2.30
2023-04-10T22:00:42.675Z,2.30
2023-04-10T22:03:12.820Z,2.40
2023-04-10T22:05:47.829Z,2.42
2023-04-10T22:08:25.623Z,2.50
2023-04-10T22:11:02.230Z,2.53
2023-04-10T22:13:33.142Z,2.13
2023-04-10T22:16:07.461Z,2.45
2023-04-10T22:18:36.536Z,2.50
2023-04-10T22:21:06.478Z,2.47
2023-04-10T22:23:36.947Z,2.30
2023-04-10T22:26:06.852Z,2.60
2023-04-10T22:28:35.766Z,2.35
2023-04-10T22:31:04.604Z,2.50
2023-04-10T22:33:34.611Z,2.40
2023-04-10T22:36:05.030Z,2.30
2023-04-10T22:38:34.906Z,2.20
2023-04-10T22:41:04.919Z,2.20
2023-04-10T22:43:35.790Z,2.38
2023-04-10T22:46:04.807Z,2.20
2023-04-10T22:48:35.150Z,2.25
2023-04-10T22:51:04.669Z,2.20
2023-04-10T22:53:34.732Z,2.30
2023-04-10T22:56:12.143Z,2.30
2023-04-10T22:58:41.197Z,2.45
2023-04-10T23:01:12.417Z,2.10
2023-04-10T23:03:41.424Z,2.25
2023-04-10T23:06:10.558Z,2.30
2023-04-10T23:08:40.050Z,2.20
2023-04-10T23:11:09.775Z,2.17
2023-04-10T23:13:39.939Z,2.05
2023-04-10T23:16:10.447Z,2.10
2023-04-10T23:18:39.419Z,2.10
2023-04-10T23:21:22.692Z,2.25
2023-04-10T23:23:51.803Z,2.00
2023-04-10T23:26:20.951Z,2.17
2023-04-10T23:28:50.914Z,2.00
2023-04-10T23:31:20.610Z,2.20
2023-04-10T23:33:50.930Z,2.28
2023-04-10T23:36:20.420Z,2.08
2023-04-10T23:38:48.746Z,2.50
2023-04-10T23:41:18.385Z,2.40
2023-04-10T23:43:48.438Z,2.50
2023-04-10T23:46:17.653Z,2.58
2023-04-10T23:48:47.385Z,2.33
2023-04-10T23:51:16.393Z,2.40
2023-04-10T23:53:46.385Z,2.40
2023-04-10T23:56:15.727Z,2.50
2023-04-10T23:58:44.968Z,2.47
